createdAt,value
2018-12-01T00:00:31.960Z,22.84
2018-12-01T00:01:07.820Z,22.80
2018-12-01T00:01:43.399Z,22.83
2018-12-01T00:02:19.064Z,22.85
2018-12-01T00:02:54.464Z,22.79
2018-12-01T00:03:29.867Z,22.77
2018-12-01T00:04:05.090Z,22.78
2018-12-01T00:04:40.490Z,22.80
2018-12-01T00:05:16.033Z,22.81
2018-12-01T00:05:51.967Z,22.85
2018-12-01T00:06:27.290Z,22.91
2018-12-01T00:07:02.751Z,22.97
2018-12-01T00:07:38.511Z,22.94
2018-12-01T00:08:14.055Z,22.90
2018-12-01T00:08:49.650Z,22.89
2018-12-01T00:09:24.954Z,22.86
2018-12-01T00:10:00.527Z,22.41
2018-12-01T00:10:35.827Z,22.86
2018-12-01T00:11:11.196Z,22.85
2018-12-01T00:11:46.773Z,22.78
2018-12-01T00:12:22.221Z,22.85
2018-12-01T00:12:57.642Z,22.90
2018-12-01T00:13:33.274Z,22.88
2018-12-01T00:14:08.643Z,22.87
2018-12-01T00:14:44.050Z,22.81
2018-12-01T00:15:24.214Z,22.89
2018-12-01T00:15:59.651Z,22.92
2018-12-01T00:16:35.080Z,23.01
2018-12-01T00:17:10.483Z,22.97
2018-12-01T00:17:46.030Z,22.93
2018-12-01T00:18:21.400Z,22.90
2018-12-01T00:18:57.049Z,22.82
2018-12-01T00:19:32.643Z,22.90
2018-12-01T00:20:12.076Z,22.91
2018-12-01T00:20:47.609Z,22.87
2018-12-01T00:21:23.245Z,22.93
2018-12-01T00:21:58.735Z,22.92
2018-12-01T00:22:34.209Z,22.92
2018-12-01T00:23:09.624Z,22.86
2018-12-01T00:23:45.341Z,22.91
2018-12-01T00:24:20.857Z,22.93
2018-12-01T00:24:56.513Z,22.93
2018-12-01T00:25:31.852Z,22.91
2018-12-01T00:26:07.323Z,22.93
2018-12-01T00:26:43.041Z,22.97
2018-12-01T00:27:18.402Z,22.93
2018-12-01T00:27:53.921Z,22.88
2018-12-01T00:28:29.329Z,22.94
2018-12-01T00:29:05.027Z,22.98
2018-12-01T00:29:40.641Z,22.95
2018-12-01T00:30:18.924Z,22.97
2018-12-01T00:30:54.370Z,23.07
2018-12-01T00:31:29.808Z,22.99
2018-12-01T00:32:05.086Z,22.96
2018-12-01T00:32:40.645Z,23.03
2018-12-01T00:33:16.075Z,23.06
2018-12-01T00:33:51.354Z,23.01
2018-12-01T00:34:26.994Z,22.96
2018-12-01T00:35:02.513Z,22.95
2018-12-01T00:35:38.076Z,22.94
2018-12-01T00:36:13.681Z,22.99
2018-12-01T00:36:49.246Z,22.97
2018-12-01T00:37:24.690Z,22.94
2018-12-01T00:38:00.198Z,22.93
2018-12-01T00:38:35.669Z,22.92
2018-12-01T00:39:10.918Z,22.91
2018-12-01T00:39:46.249Z,22.92
2018-12-01T00:40:22.962Z,22.98
2018-12-01T00:40:58.568Z,22.96
2018-12-01T00:41:33.873Z,22.93
2018-12-01T00:42:09.217Z,22.89
2018-12-01T00:42:45.091Z,22.86
2018-12-01T00:43:20.477Z,22.88
2018-12-01T00:43:55.773Z,22.89
2018-12-01T00:44:31.263Z,22.89
2018-12-01T00:45:09.176Z,22.91
2018-12-01T00:45:44.696Z,22.87
2018-12-01T00:46:21.458Z,22.91
2018-12-01T00:46:57.178Z,22.94
2018-12-01T00:47:32.705Z,23.05
2018-12-01T00:48:08.139Z,23.10
2018-12-01T00:48:43.759Z,23.13
2018-12-01T00:49:19.189Z,23.12
2018-12-01T00:49:54.742Z,23.17
2018-12-01T00:50:30.363Z,23.19
2018-12-01T00:51:05.728Z,23.21
2018-12-01T00:51:41.120Z,23.22
2018-12-01T00:52:16.415Z,23.26
2018-12-01T00:52:52.763Z,23.27
2018-12-01T00:53:28.254Z,23.29
2018-12-01T00:54:03.816Z,23.33
2018-12-01T00:54:39.413Z,23.36
2018-12-01T00:55:16.760Z,23.39
2018-12-01T00:55:52.217Z,23.43
2018-12-01T00:56:27.763Z,23.42
2018-12-01T00:57:03.369Z,23.43
2018-12-01T00:57:38.837Z,23.42
2018-12-01T00:58:14.326Z,23.45
2018-12-01T00:58:49.641Z,23.44
2018-12-01T00:59:25.012Z,23.48
2018-12-01T01:00:00.306Z,23.47
2018-12-01T01:00:35.862Z,23.50
2018-12-01T01:01:11.346Z,23.43
2018-12-01T01:01:46.823Z,23.41
2018-12-01T01:02:27.103Z,23.39
2018-12-01T01:03:02.620Z,23.36
2018-12-01T01:03:38.294Z,23.44
2018-12-01T01:04:13.821Z,23.49
2018-12-01T01:04:49.358Z,23.56
2018-12-01T01:05:26.398Z,23.60
2018-12-01T01:06:01.937Z,23.64
2018-12-01T01:06:37.350Z,23.66
2018-12-01T01:07:12.987Z,23.68
2018-12-01T01:07:48.628Z,23.68
2018-12-01T01:08:23.874Z,23.70
2018-12-01T01:08:59.279Z,23.74
2018-12-01T01:09:35.101Z,23.76
2018-12-01T01:10:11.463Z,23.79
2018-12-01T01:10:47.079Z,23.85
2018-12-01T01:11:22.304Z,23.85
2018-12-01T01:11:57.631Z,23.79
2018-12-01T01:12:33.048Z,23.82
2018-12-01T01:13:08.495Z,23.83
2018-12-01T01:13:43.865Z,23.78
2018-12-01T01:14:19.067Z,23.79
2018-12-01T01:14:54.644Z,23.75
2018-12-01T01:15:29.898Z,23.74
2018-12-01T01:16:05.268Z,23.73
2018-12-01T01:16:40.692Z,23.72
2018-12-01T01:17:16.054Z,23.74
2018-12-01T01:17:51.218Z,23.75
2018-12-01T01:18:26.545Z,23.67
2018-12-01T01:19:02.101Z,23.64
2018-12-01T01:19:37.652Z,23.68
2018-12-01T01:20:14.423Z,23.66
2018-12-01T01:20:49.890Z,23.62
2018-12-01T01:21:25.399Z,23.60
2018-12-01T01:22:00.628Z,23.60
2018-12-01T01:22:36.248Z,23.49
2018-12-01T01:23:11.752Z,23.52
2018-12-01T01:23:47.187Z,23.48
2018-12-01T01:24:22.984Z,23.47
2018-12-01T01:24:58.345Z,23.50
2018-12-01T01:25:33.895Z,23.47
2018-12-01T01:26:09.308Z,23.41
2018-12-01T01:26:44.562Z,23.42
2018-12-01T01:27:20.075Z,23.45
2018-12-01T01:27:55.530Z,23.44
2018-12-01T01:28:31.246Z,23.48
2018-12-01T01:29:06.916Z,23.49
2018-12-01T01:29:42.373Z,23.45
2018-12-01T01:30:22.705Z,23.38
2018-12-01T01:30:58.021Z,23.36
2018-12-01T01:31:33.508Z,23.38
2018-12-01T01:32:09.047Z,23.38
2018-12-01T01:32:44.375Z,23.40
2018-12-01T01:33:29.342Z,23.42
2018-12-01T01:34:04.815Z,23.41
2018-12-01T01:34:40.043Z,23.38
2018-12-01T01:35:15.339Z,23.35
2018-12-01T01:35:50.926Z,23.33
2018-12-01T01:36:26.709Z,23.29
2018-12-01T01:37:02.010Z,23.23
2018-12-01T01:37:37.726Z,23.28
2018-12-01T01:38:13.136Z,23.27
2018-12-01T01:38:48.717Z,23.18
2018-12-01T01:39:24.387Z,23.30
2018-12-01T01:39:59.893Z,23.30
2018-12-01T01:40:35.357Z,23.27
2018-12-01T01:41:11.039Z,23.25
2018-12-01T01:41:46.519Z,23.24
2018-12-01T01:42:21.935Z,23.28
2018-12-01T01:42:57.342Z,23.22
2018-12-01T01:43:32.830Z,23.16
2018-12-01T01:44:08.236Z,23.18
2018-12-01T01:44:43.645Z,23.22
2018-12-01T01:45:22.215Z,23.19
2018-12-01T01:45:57.615Z,23.19
2018-12-01T01:46:33.136Z,23.13
2018-12-01T01:47:08.380Z,23.14
2018-12-01T01:47:43.899Z,23.13
2018-12-01T01:48:19.470Z,23.14
2018-12-01T01:48:54.869Z,23.11
2018-12-01T01:49:30.176Z,23.10
2018-12-01T01:50:06.233Z,23.13
2018-12-01T01:50:41.538Z,23.14
2018-12-01T01:51:17.010Z,23.10
2018-12-01T01:51:52.444Z,23.12
2018-12-01T01:52:27.709Z,23.08
2018-12-01T01:53:03.171Z,23.05
2018-12-01T01:53:38.788Z,23.05
2018-12-01T01:54:14.159Z,23.00
2018-12-01T01:54:49.578Z,23.01
2018-12-01T01:55:24.895Z,23.06
2018-12-01T01:56:00.385Z,23.06
2018-12-01T01:56:35.718Z,23.03
2018-12-01T01:57:11.416Z,23.12
2018-12-01T01:57:46.705Z,23.10
2018-12-01T01:58:21.979Z,23.10
2018-12-01T01:58:57.376Z,23.12
2018-12-01T01:59:32.617Z,23.07
2018-12-01T02:00:13.908Z,23.13
2018-12-01T02:00:49.202Z,23.10
2018-12-01T02:01:24.801Z,23.11
2018-12-01T02:02:00.240Z,23.06
2018-12-01T02:02:35.776Z,23.10
2018-12-01T02:03:11.219Z,23.06
2018-12-01T02:03:47.054Z,23.08
2018-12-01T02:04:22.626Z,23.09
2018-12-01T02:04:57.874Z,23.06
2018-12-01T02:05:33.362Z,23.07
2018-12-01T02:06:08.983Z,22.99
2018-12-01T02:06:44.636Z,22.99
2018-12-01T02:07:20.129Z,23.02
2018-12-01T02:07:56.087Z,23.04
2018-12-01T02:08:31.659Z,23.06
2018-12-01T02:09:09.769Z,23.08
2018-12-01T02:09:45.380Z,23.12
2018-12-01T02:10:21.899Z,23.10
2018-12-01T02:10:57.351Z,23.10
2018-12-01T02:11:32.781Z,23.04
2018-12-01T02:12:08.017Z,23.04
2018-12-01T02:12:43.521Z,23.06
2018-12-01T02:13:18.959Z,23.06
2018-12-01T02:13:54.249Z,23.04
2018-12-01T02:14:29.722Z,23.07
2018-12-01T02:15:05.537Z,23.10
2018-12-01T02:15:41.159Z,23.10
2018-12-01T02:16:16.894Z,23.06
2018-12-01T02:16:52.347Z,23.09
2018-12-01T02:17:27.763Z,23.07
2018-12-01T02:18:03.243Z,23.06
2018-12-01T02:18:38.765Z,23.04
2018-12-01T02:19:14.214Z,23.06
2018-12-01T02:19:49.564Z,23.03
2018-12-01T02:20:25.114Z,22.97
2018-12-01T02:21:00.500Z,23.16
2018-12-01T02:21:35.788Z,23.13
2018-12-01T02:22:11.302Z,23.15
2018-12-01T02:22:46.851Z,23.13
2018-12-01T02:23:22.552Z,23.17
2018-12-01T02:23:58.048Z,23.16
2018-12-01T02:24:33.720Z,23.14
2018-12-01T02:25:11.108Z,23.11
2018-12-01T02:25:46.503Z,23.08
2018-12-01T02:26:21.715Z,23.05
2018-12-01T02:26:57.145Z,23.06
2018-12-01T02:27:33.036Z,23.05
2018-12-01T02:28:08.434Z,23.01
2018-12-01T02:28:43.902Z,23.04
2018-12-01T02:29:19.352Z,23.03
2018-12-01T02:29:55.007Z,23.09
2018-12-01T02:30:30.360Z,23.11
2018-12-01T02:31:05.827Z,23.10
2018-12-01T02:31:41.184Z,23.09
2018-12-01T02:32:16.502Z,23.10
2018-12-01T02:32:51.988Z,23.06
2018-12-01T02:33:27.452Z,23.14
2018-12-01T02:34:02.701Z,23.14
2018-12-01T02:34:38.221Z,23.10
2018-12-01T02:35:18.801Z,23.06
2018-12-01T02:35:54.331Z,23.08
2018-12-01T02:36:29.717Z,23.03
2018-12-01T02:37:05.202Z,23.02
2018-12-01T02:37:40.516Z,23.06
2018-12-01T02:38:15.695Z,23.00
2018-12-01T02:38:51.104Z,23.03
2018-12-01T02:39:26.756Z,23.06
2018-12-01T02:40:02.155Z,23.10
2018-12-01T02:40:38.628Z,23.07
2018-12-01T02:41:13.975Z,23.02
2018-12-01T02:41:49.548Z,23.07
2018-12-01T02:42:24.688Z,23.05
2018-12-01T02:43:00.068Z,23.07
2018-12-01T02:43:35.389Z,23.09
2018-12-01T02:44:21.279Z,23.13
2018-12-01T02:45:08.368Z,23.10
2018-12-01T02:45:54.183Z,23.09
2018-12-01T02:46:39.799Z,22.99
2018-12-01T02:47:15.306Z,22.97
2018-12-01T02:47:50.651Z,23.01
2018-12-01T02:48:26.162Z,22.99
2018-12-01T02:49:01.523Z,22.92
2018-12-01T02:49:37.099Z,22.86
2018-12-01T02:50:16.628Z,22.93
2018-12-01T02:50:52.130Z,22.94
2018-12-01T02:51:27.666Z,22.88
2018-12-01T02:52:03.074Z,22.90
2018-12-01T02:52:38.548Z,22.92
2018-12-01T02:53:14.065Z,22.95
2018-12-01T02:53:49.489Z,22.95
2018-12-01T02:54:25.022Z,22.99
2018-12-01T02:55:01.032Z,22.98
2018-12-01T02:55:36.478Z,23.04
2018-12-01T02:56:11.931Z,23.02
2018-12-01T02:56:47.587Z,23.08
2018-12-01T02:57:22.916Z,23.05
2018-12-01T02:57:58.425Z,23.03
2018-12-01T02:58:33.834Z,23.03
2018-12-01T02:59:09.283Z,22.98
2018-12-01T02:59:44.919Z,22.96
2018-12-01T03:00:20.380Z,22.91
2018-12-01T03:00:55.824Z,22.89
2018-12-01T03:01:31.302Z,22.85
2018-12-01T03:02:06.973Z,22.84
2018-12-01T03:02:42.559Z,22.84
2018-12-01T03:03:17.907Z,22.84
2018-12-01T03:03:53.426Z,22.81
2018-12-01T03:04:28.931Z,22.86
2018-12-01T03:05:04.508Z,22.77
2018-12-01T03:05:39.831Z,22.78
2018-12-01T03:06:15.458Z,22.71
2018-12-01T03:06:50.696Z,22.78
2018-12-01T03:07:26.311Z,22.57
2018-12-01T03:08:01.831Z,22.81
2018-12-01T03:08:37.386Z,22.79
2018-12-01T03:09:12.867Z,22.79
2018-12-01T03:09:48.504Z,22.85
2018-12-01T03:10:24.398Z,22.79
2018-12-01T03:10:59.753Z,22.77
2018-12-01T03:11:35.139Z,22.86
2018-12-01T03:12:10.572Z,22.89
2018-12-01T03:12:45.858Z,22.87
2018-12-01T03:13:21.323Z,22.86
2018-12-01T03:13:56.641Z,22.84
2018-12-01T03:14:32.124Z,22.81
2018-12-01T03:15:09.275Z,22.86
2018-12-01T03:15:44.861Z,22.87
2018-12-01T03:16:20.259Z,22.83
2018-12-01T03:16:55.726Z,22.79
2018-12-01T03:17:31.529Z,22.83
2018-12-01T03:18:07.637Z,22.84
2018-12-01T03:18:43.099Z,22.84
2018-12-01T03:19:18.616Z,22.80
2018-12-01T03:19:54.035Z,22.77
2018-12-01T03:20:29.426Z,22.75
2018-12-01T03:21:04.815Z,22.77
2018-12-01T03:21:40.194Z,22.72
2018-12-01T03:22:15.919Z,22.75
2018-12-01T03:22:51.314Z,22.77
2018-12-01T03:23:26.849Z,22.79
2018-12-01T03:24:02.299Z,22.80
2018-12-01T03:24:37.834Z,22.83
2018-12-01T03:25:19.730Z,22.80
2018-12-01T03:25:57.773Z,22.81
2018-12-01T03:26:33.004Z,22.79
2018-12-01T03:27:08.928Z,22.69
2018-12-01T03:27:44.413Z,22.69
2018-12-01T03:28:19.663Z,22.73
2018-12-01T03:28:55.156Z,22.71
2018-12-01T03:29:30.611Z,22.77
2018-12-01T03:30:11.385Z,22.81
2018-12-01T03:30:46.924Z,22.73
2018-12-01T03:31:22.289Z,22.76
2018-12-01T03:31:57.748Z,22.75
2018-12-01T03:32:33.110Z,22.73
2018-12-01T03:33:08.801Z,22.70
2018-12-01T03:33:44.235Z,22.72
2018-12-01T03:34:19.804Z,22.73
2018-12-01T03:34:55.323Z,22.76
2018-12-01T03:35:30.617Z,22.70
2018-12-01T03:36:06.408Z,22.68
2018-12-01T03:36:41.812Z,22.71
2018-12-01T03:37:17.239Z,22.68
2018-12-01T03:37:52.964Z,22.71
2018-12-01T03:38:28.456Z,22.72
2018-12-01T03:39:04.485Z,22.73
2018-12-01T03:39:39.826Z,22.73
2018-12-01T03:40:15.744Z,22.72
2018-12-01T03:40:51.131Z,22.69
2018-12-01T03:41:26.517Z,22.66
2018-12-01T03:42:01.854Z,22.62
2018-12-01T03:42:37.321Z,22.69
2018-12-01T03:43:12.565Z,22.74
2018-12-01T03:43:47.978Z,22.72
2018-12-01T03:44:23.464Z,22.79
2018-12-01T03:44:58.853Z,22.80
2018-12-01T03:45:34.367Z,22.84
2018-12-01T03:46:10.228Z,22.78
2018-12-01T03:46:45.798Z,22.76
2018-12-01T03:47:21.084Z,22.78
2018-12-01T03:47:56.701Z,22.87
2018-12-01T03:48:32.143Z,22.90
2018-12-01T03:49:07.790Z,22.93
2018-12-01T03:49:43.327Z,22.94
2018-12-01T03:50:23.959Z,22.90
2018-12-01T03:50:59.286Z,22.82
2018-12-01T03:51:35.029Z,22.96
2018-12-01T03:52:10.652Z,22.92
2018-12-01T03:52:46.278Z,22.84
2018-12-01T03:53:21.709Z,22.78
2018-12-01T03:53:57.176Z,22.83
2018-12-01T03:54:32.889Z,22.84
2018-12-01T03:55:17.570Z,22.84
2018-12-01T03:55:53.101Z,22.89
2018-12-01T03:56:28.476Z,22.88
2018-12-01T03:57:03.888Z,22.88
2018-12-01T03:57:39.641Z,22.86
2018-12-01T03:58:15.274Z,22.79
2018-12-01T03:58:50.529Z,22.78
2018-12-01T03:59:25.756Z,22.82
2018-12-01T04:00:01.514Z,22.84
2018-12-01T04:00:37.880Z,22.76
2018-12-01T04:01:13.627Z,22.83
2018-12-01T04:01:49.690Z,22.80
2018-12-01T04:02:25.015Z,22.77
2018-12-01T04:03:01.824Z,22.81
2018-12-01T04:03:37.318Z,22.83
2018-12-01T04:04:12.915Z,22.89
2018-12-01T04:04:48.274Z,22.90
2018-12-01T04:05:23.786Z,22.90
2018-12-01T04:05:59.303Z,23.01
2018-12-01T04:06:34.840Z,23.00
2018-12-01T04:07:10.181Z,22.96
2018-12-01T04:07:45.490Z,22.94
2018-12-01T04:08:20.687Z,22.95
2018-12-01T04:08:55.959Z,22.93
2018-12-01T04:09:31.572Z,22.89
2018-12-01T04:10:08.013Z,22.90
2018-12-01T04:10:43.495Z,22.85
2018-12-01T04:11:19.070Z,22.98
2018-12-01T04:11:54.560Z,22.94
2018-12-01T04:12:30.008Z,22.97
2018-12-01T04:13:05.657Z,22.92
2018-12-01T04:13:41.242Z,22.93
2018-12-01T04:14:16.665Z,22.93
2018-12-01T04:14:52.316Z,22.94
2018-12-01T04:15:27.878Z,22.89
2018-12-01T04:16:04.206Z,22.88
2018-12-01T04:16:39.466Z,22.94
2018-12-01T04:17:15.243Z,22.87
2018-12-01T04:17:50.979Z,22.95
2018-12-01T04:18:26.431Z,22.96
2018-12-01T04:19:01.893Z,22.87
2018-12-01T04:19:37.341Z,22.83
2018-12-01T04:20:12.621Z,22.82
2018-12-01T04:20:48.178Z,22.91
2018-12-01T04:21:23.829Z,22.87
2018-12-01T04:21:59.504Z,22.83
2018-12-01T04:22:34.959Z,22.78
2018-12-01T04:23:10.353Z,22.86
2018-12-01T04:23:46.032Z,22.91
2018-12-01T04:24:21.377Z,22.88
2018-12-01T04:24:56.812Z,22.89
2018-12-01T04:25:32.376Z,22.91
2018-12-01T04:26:08.028Z,22.91
2018-12-01T04:26:43.542Z,22.93
2018-12-01T04:27:18.957Z,22.96
2018-12-01T04:27:54.385Z,22.83
2018-12-01T04:28:29.797Z,22.90
2018-12-01T04:29:05.261Z,22.88
2018-12-01T04:29:40.486Z,22.91
2018-12-01T04:30:17.512Z,22.87
2018-12-01T04:30:53.093Z,22.91
2018-12-01T04:31:28.720Z,22.95
2018-12-01T04:32:04.371Z,22.93
2018-12-01T04:32:39.894Z,22.91
2018-12-01T04:33:15.444Z,22.87
2018-12-01T04:33:51.001Z,22.86
2018-12-01T04:34:26.295Z,22.93
2018-12-01T04:35:01.593Z,22.82
2018-12-01T04:35:37.068Z,22.84
2018-12-01T04:36:12.608Z,22.89
2018-12-01T04:36:48.263Z,22.91
2018-12-01T04:37:23.830Z,22.89
2018-12-01T04:37:59.395Z,22.88
2018-12-01T04:38:34.947Z,22.86
2018-12-01T04:39:10.473Z,22.85
2018-12-01T04:39:45.956Z,22.80
2018-12-01T04:40:21.535Z,22.82
2018-12-01T04:40:56.838Z,22.86
2018-12-01T04:41:32.341Z,22.88
2018-12-01T04:42:07.656Z,22.89
2018-12-01T04:42:43.276Z,22.90
2018-12-01T04:43:19.411Z,22.91
2018-12-01T04:43:54.947Z,22.92
2018-12-01T04:44:30.385Z,22.84
2018-12-01T04:45:06.249Z,22.86
2018-12-01T04:45:41.589Z,22.84
2018-12-01T04:46:17.242Z,22.80
2018-12-01T04:46:52.702Z,22.74
2018-12-01T04:47:28.041Z,22.39
2018-12-01T04:48:03.663Z,22.60
2018-12-01T04:48:39.228Z,22.61
2018-12-01T04:49:14.735Z,22.66
2018-12-01T04:49:50.118Z,22.70
2018-12-01T04:50:25.613Z,22.63
2018-12-01T04:51:00.862Z,22.64
2018-12-01T04:51:36.165Z,22.59
2018-12-01T04:52:11.650Z,22.59
2018-12-01T04:52:48.533Z,22.58
2018-12-01T04:53:24.278Z,22.59
2018-12-01T04:53:59.728Z,22.60
2018-12-01T04:54:35.090Z,22.57
2018-12-01T04:55:12.272Z,22.59
2018-12-01T04:55:47.939Z,22.63
2018-12-01T04:56:23.417Z,22.62
2018-12-01T04:56:58.838Z,22.60
2018-12-01T04:57:34.829Z,22.57
2018-12-01T04:58:10.211Z,22.65
2018-12-01T04:58:46.148Z,22.57
2018-12-01T04:59:21.456Z,22.57
2018-12-01T04:59:57.085Z,22.52
2018-12-01T05:00:35.981Z,22.60
2018-12-01T05:01:11.537Z,22.60
2018-12-01T05:01:47.171Z,22.58
2018-12-01T05:02:22.504Z,22.59
2018-12-01T05:02:58.264Z,22.57
2018-12-01T05:03:33.787Z,22.62
2018-12-01T05:04:09.162Z,22.65
2018-12-01T05:04:44.517Z,22.72
2018-12-01T05:05:21.125Z,22.70
2018-12-01T05:05:56.596Z,22.72
2018-12-01T05:06:32.107Z,22.74
2018-12-01T05:07:07.828Z,22.74
2018-12-01T05:07:43.404Z,22.73
2018-12-01T05:08:18.775Z,22.76
2018-12-01T05:08:54.475Z,22.78
2018-12-01T05:09:29.779Z,22.83
2018-12-01T05:10:06.299Z,22.86
2018-12-01T05:10:41.749Z,22.86
2018-12-01T05:11:17.337Z,22.87
2018-12-01T05:11:52.837Z,22.89
2018-12-01T05:12:28.346Z,22.91
2018-12-01T05:13:03.985Z,22.86
2018-12-01T05:13:39.546Z,22.76
2018-12-01T05:14:14.963Z,22.85
2018-12-01T05:14:50.269Z,22.77
2018-12-01T05:15:26.225Z,22.87
2018-12-01T05:16:01.772Z,22.86
2018-12-01T05:16:37.499Z,22.83
2018-12-01T05:17:12.982Z,22.78
2018-12-01T05:17:48.515Z,22.77
2018-12-01T05:18:23.910Z,22.73
2018-12-01T05:18:59.404Z,22.77
2018-12-01T05:19:34.792Z,22.76
2018-12-01T05:20:12.945Z,22.76
2018-12-01T05:20:48.459Z,22.75
2018-12-01T05:21:23.814Z,22.84
2018-12-01T05:21:59.676Z,22.77
2018-12-01T05:22:35.160Z,22.81
2018-12-01T05:23:10.691Z,22.88
2018-12-01T05:23:46.330Z,22.94
2018-12-01T05:24:21.886Z,22.84
2018-12-01T05:24:57.373Z,22.87
2018-12-01T05:25:32.729Z,22.85
2018-12-01T05:26:08.406Z,22.77
2018-12-01T05:26:43.722Z,22.76
2018-12-01T05:27:19.041Z,22.81
2018-12-01T05:27:54.542Z,22.83
2018-12-01T05:28:29.935Z,22.80
2018-12-01T05:29:05.519Z,22.76
2018-12-01T05:29:40.708Z,22.76
2018-12-01T05:30:16.059Z,22.73
2018-12-01T05:30:51.540Z,22.78
2018-12-01T05:31:27.060Z,22.78
2018-12-01T05:32:02.602Z,22.80
2018-12-01T05:32:39.228Z,22.80
2018-12-01T05:33:14.723Z,22.77
2018-12-01T05:33:50.090Z,22.81
2018-12-01T05:34:25.303Z,22.78
2018-12-01T05:35:01.100Z,22.75
2018-12-01T05:35:36.424Z,22.74
2018-12-01T05:36:11.900Z,22.77
2018-12-01T05:36:47.235Z,22.83
2018-12-01T05:37:22.692Z,22.83
2018-12-01T05:37:58.067Z,22.87
2018-12-01T05:38:33.688Z,22.80
2018-12-01T05:39:10.921Z,22.71
2018-12-01T05:39:46.313Z,22.74
2018-12-01T05:40:22.146Z,22.68
2018-12-01T05:40:57.616Z,22.73
2018-12-01T05:41:34.093Z,22.77
2018-12-01T05:42:08.773Z,22.72
2018-12-01T05:42:44.152Z,22.76
2018-12-01T05:43:19.827Z,22.70
2018-12-01T05:43:55.192Z,22.74
2018-12-01T05:44:30.547Z,22.77
2018-12-01T05:45:06.906Z,22.80
2018-12-01T05:45:42.228Z,22.74
2018-12-01T05:46:18.102Z,22.74
2018-12-01T05:46:53.769Z,22.74
2018-12-01T05:47:29.141Z,22.71
2018-12-01T05:48:04.760Z,22.78
2018-12-01T05:48:40.104Z,22.84
2018-12-01T05:49:15.438Z,22.84
2018-12-01T05:49:50.852Z,22.84
2018-12-01T05:50:27.044Z,22.79
2018-12-01T05:51:02.456Z,22.77
2018-12-01T05:51:38.339Z,22.83
2018-12-01T05:52:13.664Z,22.87
2018-12-01T05:52:49.148Z,22.87
2018-12-01T05:53:24.710Z,22.77
2018-12-01T05:54:00.139Z,22.76
2018-12-01T05:54:35.706Z,22.80
2018-12-01T05:55:12.955Z,22.80
2018-12-01T05:55:48.207Z,22.80
2018-12-01T05:56:23.305Z,22.80
2018-12-01T05:56:58.851Z,22.80
2018-12-01T05:57:34.445Z,22.83
2018-12-01T05:58:09.825Z,22.81
2018-12-01T05:58:45.188Z,22.88
2018-12-01T05:59:20.439Z,22.85
2018-12-01T05:59:55.864Z,22.88
2018-12-01T06:00:31.489Z,22.89
2018-12-01T06:01:06.828Z,22.89
2018-12-01T06:01:42.207Z,22.88
2018-12-01T06:02:17.594Z,22.89
2018-12-01T06:02:52.892Z,22.84
2018-12-01T06:03:28.158Z,22.87
2018-12-01T06:04:03.599Z,22.82
2018-12-01T06:04:38.948Z,22.81
2018-12-01T06:05:14.453Z,22.84
2018-12-01T06:05:49.730Z,22.79
2018-12-01T06:06:25.109Z,22.76
2018-12-01T06:07:00.537Z,22.80
2018-12-01T06:07:35.934Z,22.74
2018-12-01T06:08:11.502Z,22.68
2018-12-01T06:08:47.233Z,22.71
2018-12-01T06:09:22.557Z,22.75
2018-12-01T06:09:57.909Z,22.74
2018-12-01T06:10:33.212Z,22.68
2018-12-01T06:11:08.731Z,22.64
2018-12-01T06:11:44.240Z,22.64
2018-12-01T06:12:19.586Z,22.54
2018-12-01T06:12:55.397Z,22.40
2018-12-01T06:13:30.785Z,22.42
2018-12-01T06:14:06.260Z,22.45
2018-12-01T06:14:41.627Z,22.46
2018-12-01T06:15:18.252Z,22.58
2018-12-01T06:15:53.476Z,22.60
2018-12-01T06:16:28.662Z,22.57
2018-12-01T06:17:04.044Z,22.48
2018-12-01T06:17:39.323Z,22.46
2018-12-01T06:18:14.691Z,22.53
2018-12-01T06:18:50.170Z,22.57
2018-12-01T06:19:25.553Z,22.55
2018-12-01T06:20:00.802Z,22.54
2018-12-01T06:20:36.283Z,22.56
2018-12-01T06:21:11.672Z,22.66
2018-12-01T06:21:46.913Z,22.63
2018-12-01T06:22:22.186Z,22.59
2018-12-01T06:22:57.877Z,22.55
2018-12-01T06:23:33.475Z,22.51
2018-12-01T06:24:09.114Z,22.49
2018-12-01T06:24:44.447Z,22.46
2018-12-01T06:25:21.091Z,22.49
2018-12-01T06:25:56.568Z,22.54
2018-12-01T06:26:31.847Z,22.55
2018-12-01T06:27:07.226Z,22.57
2018-12-01T06:27:42.955Z,22.48
2018-12-01T06:28:18.491Z,22.50
2018-12-01T06:28:53.859Z,22.54
2018-12-01T06:29:29.389Z,22.53
2018-12-01T06:30:05.271Z,22.53
2018-12-01T06:30:40.803Z,22.52
2018-12-01T06:31:16.231Z,22.41
2018-12-01T06:31:51.690Z,22.42
2018-12-01T06:32:27.127Z,22.44
2018-12-01T06:33:02.409Z,22.40
2018-12-01T06:33:37.749Z,22.39
2018-12-01T06:34:13.043Z,22.41
2018-12-01T06:34:48.489Z,22.51
2018-12-01T06:35:23.879Z,22.41
2018-12-01T06:35:59.129Z,22.44
2018-12-01T06:36:34.343Z,22.49
2018-12-01T06:37:09.680Z,22.47
2018-12-01T06:37:45.011Z,22.48
2018-12-01T06:38:20.392Z,22.50
2018-12-01T06:38:55.579Z,22.43
2018-12-01T06:39:31.008Z,22.50
2018-12-01T06:40:10.179Z,22.51
2018-12-01T06:40:45.600Z,22.62
2018-12-01T06:41:20.985Z,22.70
2018-12-01T06:41:56.437Z,22.71
2018-12-01T06:42:31.690Z,22.70
2018-12-01T06:43:07.258Z,22.70
2018-12-01T06:43:42.575Z,22.72
2018-12-01T06:44:17.967Z,22.70
2018-12-01T06:44:53.669Z,22.70
2018-12-01T06:45:29.258Z,22.66
2018-12-01T06:46:04.868Z,22.68
2018-12-01T06:46:40.529Z,22.62
2018-12-01T06:47:16.061Z,22.63
2018-12-01T06:47:51.543Z,22.58
2018-12-01T06:48:26.803Z,22.65
2018-12-01T06:49:02.062Z,22.61
2018-12-01T06:49:37.700Z,22.62
2018-12-01T06:50:16.494Z,22.62
2018-12-01T06:50:52.062Z,22.62
2018-12-01T06:51:27.428Z,22.61
2018-12-01T06:52:02.868Z,22.68
2018-12-01T06:52:38.199Z,22.66
2018-12-01T06:53:13.662Z,22.63
2018-12-01T06:53:49.192Z,22.66
2018-12-01T06:54:24.594Z,22.58
2018-12-01T06:54:59.935Z,22.60
2018-12-01T06:55:35.332Z,22.60
2018-12-01T06:56:10.664Z,22.59
2018-12-01T06:56:46.083Z,22.56
2018-12-01T06:57:21.548Z,22.58
2018-12-01T06:57:56.805Z,22.59
2018-12-01T06:58:32.404Z,22.66
2018-12-01T06:59:07.763Z,22.69
2018-12-01T06:59:43.210Z,22.63
2018-12-01T07:00:20.652Z,22.62
2018-12-01T07:00:56.232Z,22.66
2018-12-01T07:01:32.691Z,22.67
2018-12-01T07:02:08.587Z,22.63
2018-12-01T07:02:44.932Z,22.62
2018-12-01T07:03:20.342Z,22.60
2018-12-01T07:03:55.724Z,22.64
2018-12-01T07:04:31.105Z,22.63
2018-12-01T07:05:07.900Z,22.68
2018-12-01T07:05:43.134Z,22.39
2018-12-01T07:06:18.962Z,22.61
2018-12-01T07:06:54.349Z,22.60
2018-12-01T07:07:29.592Z,22.54
2018-12-01T07:08:05.021Z,22.53
2018-12-01T07:08:40.345Z,22.58
2018-12-01T07:09:15.908Z,22.58
2018-12-01T07:09:51.202Z,22.55
2018-12-01T07:10:26.504Z,22.55
2018-12-01T07:11:01.985Z,22.64
2018-12-01T07:11:37.517Z,22.64
2018-12-01T07:12:13.093Z,22.56
2018-12-01T07:12:50.483Z,22.58
2018-12-01T07:13:25.862Z,22.58
2018-12-01T07:14:01.196Z,22.61
2018-12-01T07:14:36.500Z,22.55
2018-12-01T07:15:14.454Z,22.56
2018-12-01T07:15:50.144Z,22.59
2018-12-01T07:16:25.403Z,22.60
2018-12-01T07:17:00.813Z,22.63
2018-12-01T07:17:36.223Z,22.54
2018-12-01T07:18:21.860Z,22.52
2018-12-01T07:19:07.590Z,22.54
2018-12-01T07:19:43.041Z,22.57
2018-12-01T07:20:18.786Z,22.58
2018-12-01T07:20:54.093Z,22.59
2018-12-01T07:21:29.394Z,22.60
2018-12-01T07:22:04.963Z,22.55
2018-12-01T07:22:40.213Z,22.53
2018-12-01T07:23:15.705Z,22.54
2018-12-01T07:23:51.101Z,22.54
2018-12-01T07:24:26.545Z,22.52
2018-12-01T07:25:02.022Z,22.50
2018-12-01T07:25:37.380Z,22.51
2018-12-01T07:26:12.708Z,22.52
2018-12-01T07:26:47.958Z,22.52
2018-12-01T07:27:23.308Z,22.50
2018-12-01T07:27:58.878Z,22.51
2018-12-01T07:28:34.098Z,22.50
2018-12-01T07:29:09.807Z,22.57
2018-12-01T07:29:45.079Z,22.64
2018-12-01T07:30:20.909Z,22.59
2018-12-01T07:30:56.191Z,22.57
2018-12-01T07:31:31.592Z,22.59
2018-12-01T07:32:07.466Z,22.59
2018-12-01T07:32:43.367Z,22.61
2018-12-01T07:33:18.956Z,22.66
2018-12-01T07:33:54.291Z,22.61
2018-12-01T07:34:29.731Z,22.54
2018-12-01T07:35:05.251Z,22.63
2018-12-01T07:35:40.895Z,22.65
2018-12-01T07:36:16.496Z,22.67
2018-12-01T07:36:51.737Z,22.67
2018-12-01T07:37:27.242Z,22.64
2018-12-01T07:38:02.494Z,22.59
2018-12-01T07:38:37.914Z,22.57
2018-12-01T07:39:13.252Z,22.61
2018-12-01T07:39:50.287Z,22.59
2018-12-01T07:40:25.574Z,22.57